sensor_id;sensor_type;location;lat;lon;timestamp;temperature;humidity
19292;DHT22;9779;51.756;7.450;2023-11-22T00:00:08;6.20;99.90
19292;DHT22;9779;51.756;7.450;2023-11-22T00:02:35;6.10;99.90
19292;DHT22;9779;51.756;7.450;2023-11-22T00:05:01;6.20;99.90
19292;DHT22;9779;51.756;7.450;2023-11-22T00:07:26;6.20;99.90
19292;DHT22;9779;51.756;7.450;2023-11-22T00:09:58;6.20;99.90
19292;DHT22;9779;51.756;7.450;2023-11-22T00:12:24;6.10;99.90
19292;DHT22;9779;51.756;7.450;2023-11-22T00:14:50;6.10;99.90
19292;DHT22;9779;51.756;7.450;2023-11-22T00:17:16;6.10;99.90
19292;DHT22;9779;51.756;7.450;2023-11-22T00:19:45;6.10;99.90
19292;DHT22;9779;51.756;7.450;2023-11-22T00:22:11;6.10;99.90
19292;DHT22;9779;51.756;7.450;2023-11-22T00:24:39;6.10;99.90
19292;DHT22;9779;51.756;7.450;2023-11-22T00:27:05;6.10;99.90
19292;DHT22;9779;51.756;7.450;2023-11-22T00:29:31;6.10;99.90
19292;DHT22;9779;51.756;7.450;2023-11-22T00:31:57;6.10;99.90
19292;DHT22;9779;51.756;7.450;2023-11-22T00:34:23;6.00;99.90
19292;DHT22;9779;51.756;7.450;2023-11-22T00:36:48;6.00;99.90
19292;DHT22;9779;51.756;7.450;2023-11-22T00:39:15;6.00;99.90
19292;DHT22;9779;51.756;7.450;2023-11-22T00:41:40;6.00;99.90
19292;DHT22;9779;51.756;7.450;2023-11-22T00:44:06;6.00;99.90
19292;DHT22;9779;51.756;7.450;2023-11-22T00:46:32;6.00;99.90
19292;DHT22;9779;51.756;7.450;2023-11-22T00:48:58;6.00;99.90
19292;DHT22;9779;51.756;7.450;2023-11-22T00:51:24;6.00;99.90
19292;DHT22;9779;51.756;7.450;2023-11-22T00:53:50;6.00;99.90
19292;DHT22;9779;51.756;7.450;2023-11-22T00:56:16;5.90;99.90
19292;DHT22;9779;51.756;7.450;2023-11-22T00:58:41;5.90;99.90
19292;DHT22;9779;51.756;7.450;2023-11-22T01:01:07;5.90;99.90
19292;DHT22;9779;51.756;7.450;2023-11-22T01:03:33;5.80;99.90
19292;DHT22;9779;51.756;7.450;2023-11-22T01:05:58;5.80;99.90
19292;DHT22;9779;51.756;7.450;2023-11-22T01:08:24;5.80;99.90
19292;DHT22;9779;51.756;7.450;2023-11-22T01:10:50;5.70;99.90
19292;DHT22;9779;51.756;7.450;2023-11-22T01:13:15;5.70;99.90
19292;DHT22;9779;51.756;7.450;2023-11-22T01:15:41;5.70;99.90
19292;DHT22;9779;51.756;7.450;2023-11-22T01:18:07;5.60;99.90
19292;DHT22;9779;51.756;7.450;2023-11-22T01:20:33;5.60;99.90
19292;DHT22;9779;51.756;7.450;2023-11-22T01:22:58;5.60;99.90
19292;DHT22;9779;51.756;7.450;2023-11-22T01:25:24;5.60;99.90
19292;DHT22;9779;51.756;7.450;2023-11-22T01:27:50;5.50;99.90
19292;DHT22;9779;51.756;7.450;2023-11-22T01:30:15;5.50;99.90
19292;DHT22;9779;51.756;7.450;2023-11-22T01:32:41;5.50;99.90
19292;DHT22;9779;51.756;7.450;2023-11-22T01:35:07;5.50;99.90
19292;DHT22;9779;51.756;7.450;2023-11-22T01:37:33;5.40;99.90
19292;DHT22;9779;51.756;7.450;2023-11-22T01:39:58;5.40;99.90
19292;DHT22;9779;51.756;7.450;2023-11-22T01:42:24;5.40;99.90
19292;DHT22;9779;51.756;7.450;2023-11-22T01:44:51;5.30;99.90
19292;DHT22;9779;51.756;7.450;2023-11-22T01:47:18;5.30;99.90
19292;DHT22;9779;51.756;7.450;2023-11-22T01:49:45;5.20;99.90
19292;DHT22;9779;51.756;7.450;2023-11-22T01:52:10;5.20;99.90
19292;DHT22;9779;51.756;7.450;2023-11-22T01:54:36;5.20;99.90
19292;DHT22;9779;51.756;7.450;2023-11-22T01:57:03;5.10;99.90
19292;DHT22;9779;51.756;7.450;2023-11-22T01:59:33;5.10;99.90
19292;DHT22;9779;51.756;7.450;2023-11-22T02:01:59;5.10;99.90
19292;DHT22;9779;51.756;7.450;2023-11-22T02:04:24;5.10;99.90
19292;DHT22;9779;51.756;7.450;2023-11-22T02:06:51;5.00;99.90
19292;DHT22;9779;51.756;7.450;2023-11-22T02:09:16;5.00;99.90
19292;DHT22;9779;51.756;7.450;2023-11-22T02:11:43;5.00;99.90
19292;DHT22;9779;51.756;7.450;2023-11-22T02:14:11;5.00;99.90
19292;DHT22;9779;51.756;7.450;2023-11-22T02:16:37;5.00;99.90
19292;DHT22;9779;51.756;7.450;2023-11-22T02:19:06;5.00;99.90
19292;DHT22;9779;51.756;7.450;2023-11-22T02:21:32;5.00;99.90
19292;DHT22;9779;51.756;7.450;2023-11-22T02:23:58;4.90;99.90
19292;DHT22;9779;51.756;7.450;2023-11-22T02:26:24;4.90;99.90
19292;DHT22;9779;51.756;7.450;2023-11-22T02:28:50;4.90;99.90
19292;DHT22;9779;51.756;7.450;2023-11-22T02:31:16;4.90;99.90
19292;DHT22;9779;51.756;7.450;2023-11-22T02:33:42;4.80;99.90
19292;DHT22;9779;51.756;7.450;2023-11-22T02:36:09;4.80;99.90
19292;DHT22;9779;51.756;7.450;2023-11-22T02:38:37;4.80;99.90
19292;DHT22;9779;51.756;7.450;2023-11-22T02:41:03;4.80;99.90
19292;DHT22;9779;51.756;7.450;2023-11-22T02:43:30;4.70;99.90
19292;DHT22;9779;51.756;7.450;2023-11-22T02:45:55;4.70;99.90
19292;DHT22;9779;51.756;7.450;2023-11-22T02:48:21;4.70;99.90
19292;DHT22;9779;51.756;7.450;2023-11-22T02:50:46;4.70;99.90
19292;DHT22;9779;51.756;7.450;2023-11-22T02:53:12;4.60;99.90
19292;DHT22;9779;51.756;7.450;2023-11-22T02:55:38;4.60;99.90
19292;DHT22;9779;51.756;7.450;2023-11-22T02:58:04;4.60;99.90
19292;DHT22;9779;51.756;7.450;2023-11-22T03:00:29;4.60;99.90
19292;DHT22;9779;51.756;7.450;2023-11-22T03:02:55;4.60;99.90
19292;DHT22;9779;51.756;7.450;2023-11-22T03:05:21;4.50;99.90
19292;DHT22;9779;51.756;7.450;2023-11-22T03:07:47;4.50;99.90
19292;DHT22;9779;51.756;7.450;2023-11-22T03:10:13;4.50;99.90
19292;DHT22;9779;51.756;7.450;2023-11-22T03:12:39;4.50;99.90
19292;DHT22;9779;51.756;7.450;2023-11-22T03:15:05;4.40;99.90
19292;DHT22;9779;51.756;7.450;2023-11-22T03:17:31;4.40;99.90
19292;DHT22;9779;51.756;7.450;2023-11-22T03:19:58;4.40;99.90
19292;DHT22;9779;51.756;7.450;2023-11-22T03:22:28;4.40;99.90
19292;DHT22;9779;51.756;7.450;2023-11-22T03:24:56;4.30;99.90
19292;DHT22;9779;51.756;7.450;2023-11-22T03:27:22;4.30;99.90
19292;DHT22;9779;51.756;7.450;2023-11-22T03:29:48;4.30;99.90
19292;DHT22;9779;51.756;7.450;2023-11-22T03:32:14;4.20;99.90
19292;DHT22;9779;51.756;7.450;2023-11-22T03:34:39;4.30;99.90
19292;DHT22;9779;51.756;7.450;2023-11-22T03:37:05;4.20;99.90
19292;DHT22;9779;51.756;7.450;2023-11-22T03:39:30;4.20;99.90
19292;DHT22;9779;51.756;7.450;2023-11-22T03:41:56;4.10;99.90
19292;DHT22;9779;51.756;7.450;2023-11-22T03:44:22;4.20;99.90
19292;DHT22;9779;51.756;7.450;2023-11-22T03:46:48;4.10;99.90
19292;DHT22;9779;51.756;7.450;2023-11-22T03:49:14;4.10;99.90
19292;DHT22;9779;51.756;7.450;2023-11-22T03:51:42;4.10;99.90
19292;DHT22;9779;51.756;7.450;2023-11-22T03:54:08;4.10;99.90
19292;DHT22;9779;51.756;7.450;2023-11-22T03:56:35;4.10;99.90
19292;DHT22;9779;51.756;7.450;2023-11-22T03:59:01;4.00;99.90
19292;DHT22;9779;51.756;7.450;2023-11-22T04:01:26;4.00;99.90
19292;DHT22;9779;51.756;7.450;2023-11-22T04:03:52;3.90;99.90
19292;DHT22;9779;51.756;7.450;2023-11-22T04:06:19;3.90;99.90
19292;DHT22;9779;51.756;7.450;2023-11-22T04:08:45;3.90;99.90
19292;DHT22;9779;51.756;7.450;2023-11-22T04:11:15;3.90;99.90
19292;DHT22;9779;51.756;7.450;2023-11-22T04:13:40;3.80;99.90
19292;DHT22;9779;51.756;7.450;2023-11-22T04:16:09;3.70;99.90
19292;DHT22;9779;51.756;7.450;2023-11-22T04:18:40;3.70;99.90
19292;DHT22;9779;51.756;7.450;2023-11-22T04:21:07;3.60;99.90
19292;DHT22;9779;51.756;7.450;2023-11-22T04:23:33;3.60;99.90
19292;DHT22;9779;51.756;7.450;2023-11-22T04:25:59;3.60;99.90
19292;DHT22;9779;51.756;7.450;2023-11-22T04:28:25;3.50;99.90
19292;DHT22;9779;51.756;7.450;2023-11-22T04:30:52;3.40;99.90
19292;DHT22;9779;51.756;7.450;2023-11-22T04:33:18;3.40;99.90
19292;DHT22;9779;51.756;7.450;2023-11-22T04:35:44;3.40;99.90
19292;DHT22;9779;51.756;7.450;2023-11-22T04:38:10;3.40;99.90
19292;DHT22;9779;51.756;7.450;2023-11-22T04:40:36;3.40;99.90
19292;DHT22;9779;51.756;7.450;2023-11-22T04:43:02;3.40;99.90
19292;DHT22;9779;51.756;7.450;2023-11-22T04:45:27;3.30;99.90
19292;DHT22;9779;51.756;7.450;2023-11-22T04:47:53;3.30;99.90
19292;DHT22;9779;51.756;7.450;2023-11-22T04:50:18;3.20;99.90
19292;DHT22;9779;51.756;7.450;2023-11-22T04:52:44;3.20;99.90
19292;DHT22;9779;51.756;7.450;2023-11-22T04:55:10;3.20;99.90
19292;DHT22;9779;51.756;7.450;2023-11-22T04:57:35;3.10;99.90
19292;DHT22;9779;51.756;7.450;2023-11-22T05:00:02;3.10;99.90
19292;DHT22;9779;51.756;7.450;2023-11-22T05:02:30;3.10;99.90
19292;DHT22;9779;51.756;7.450;2023-11-22T05:04:55;3.20;99.90
19292;DHT22;9779;51.756;7.450;2023-11-22T05:07:22;3.10;99.90
19292;DHT22;9779;51.756;7.450;2023-11-22T05:09:47;3.10;99.90
19292;DHT22;9779;51.756;7.450;2023-11-22T05:12:13;3.10;99.90
19292;DHT22;9779;51.756;7.450;2023-11-22T05:14:40;3.10;99.90
19292;DHT22;9779;51.756;7.450;2023-11-22T05:17:06;3.10;99.90
19292;DHT22;9779;51.756;7.450;2023-11-22T05:19:31;3.10;99.90
19292;DHT22;9779;51.756;7.450;2023-11-22T05:21:57;3.00;99.90
19292;DHT22;9779;51.756;7.450;2023-11-22T05:24:23;3.00;99.90
19292;DHT22;9779;51.756;7.450;2023-11-22T05:26:49;3.00;99.90
19292;DHT22;9779;51.756;7.450;2023-11-22T05:29:15;3.00;99.90
19292;DHT22;9779;51.756;7.450;2023-11-22T05:31:40;3.00;99.90
19292;DHT22;9779;51.756;7.450;2023-11-22T05:34:06;2.90;99.90
19292;DHT22;9779;51.756;7.450;2023-11-22T05:36:31;2.90;99.90
19292;DHT22;9779;51.756;7.450;2023-11-22T05:38:57;2.90;99.90
19292;DHT22;9779;51.756;7.450;2023-11-22T05:41:24;2.90;99.90
19292;DHT22;9779;51.756;7.450;2023-11-22T05:43:51;2.90;99.90
19292;DHT22;9779;51.756;7.450;2023-11-22T05:46:19;2.90;99.90
19292;DHT22;9779;51.756;7.450;2023-11-22T05:48:48;2.80;99.90
19292;DHT22;9779;51.756;7.450;2023-11-22T05:51:15;2.80;99.90
19292;DHT22;9779;51.756;7.450;2023-11-22T05:53:41;2.80;99.90
19292;DHT22;9779;51.756;7.450;2023-11-22T05:56:06;2.70;99.90
19292;DHT22;9779;51.756;7.450;2023-11-22T05:58:34;2.70;99.90
19292;DHT22;9779;51.756;7.450;2023-11-22T06:01:06;2.60;99.90
19292;DHT22;9779;51.756;7.450;2023-11-22T06:03:32;2.60;99.90
19292;DHT22;9779;51.756;7.450;2023-11-22T06:05:58;2.50;99.90
19292;DHT22;9779;51.756;7.450;2023-11-22T06:08:24;2.50;99.90
19292;DHT22;9779;51.756;7.450;2023-11-22T06:10:50;2.50;99.90
19292;DHT22;9779;51.756;7.450;2023-11-22T06:13:17;2.50;99.90
19292;DHT22;9779;51.756;7.450;2023-11-22T06:15:43;2.40;99.90
19292;DHT22;9779;51.756;7.450;2023-11-22T06:18:08;2.40;99.90
19292;DHT22;9779;51.756;7.450;2023-11-22T06:20:34;2.40;99.90
19292;DHT22;9779;51.756;7.450;2023-11-22T06:23:00;2.30;99.90
19292;DHT22;9779;51.756;7.450;2023-11-22T06:25:25;2.30;99.90
19292;DHT22;9779;51.756;7.450;2023-11-22T06:27:52;2.30;99.90
19292;DHT22;9779;51.756;7.450;2023-11-22T06:30:18;2.20;99.90
19292;DHT22;9779;51.756;7.450;2023-11-22T06:32:43;2.20;99.90
19292;DHT22;9779;51.756;7.450;2023-11-22T06:35:10;2.20;99.90
19292;DHT22;9779;51.756;7.450;2023-11-22T06:37:40;2.20;99.90
19292;DHT22;9779;51.756;7.450;2023-11-22T06:40:06;2.20;99.90
19292;DHT22;9779;51.756;7.450;2023-11-22T06:42:32;2.10;99.90
19292;DHT22;9779;51.756;7.450;2023-11-22T06:44:59;2.10;99.90
19292;DHT22;9779;51.756;7.450;2023-11-22T06:47:26;2.10;99.90
19292;DHT22;9779;51.756;7.450;2023-11-22T06:49:52;2.00;99.90
19292;DHT22;9779;51.756;7.450;2023-11-22T06:52:19;2.00;99.90
19292;DHT22;9779;51.756;7.450;2023-11-22T06:54:44;2.00;99.90
19292;DHT22;9779;51.756;7.450;2023-11-22T06:57:10;2.00;99.90
19292;DHT22;9779;51.756;7.450;2023-11-22T06:59:35;2.10;99.90
19292;DHT22;9779;51.756;7.450;2023-11-22T07:02:01;2.00;99.90
19292;DHT22;9779;51.756;7.450;2023-11-22T07:04:27;2.10;99.90
19292;DHT22;9779;51.756;7.450;2023-11-22T07:06:53;2.00;99.90
19292;DHT22;9779;51.756;7.450;2023-11-22T07:09:19;2.00;99.90
19292;DHT22;9779;51.756;7.450;2023-11-22T07:11:44;2.00;99.90
19292;DHT22;9779;51.756;7.450;2023-11-22T07:14:10;2.00;99.90
19292;DHT22;9779;51.756;7.450;2023-11-22T07:16:36;1.90;99.90
19292;DHT22;9779;51.756;7.450;2023-11-22T07:19:03;2.00;99.90
19292;DHT22;9779;51.756;7.450;2023-11-22T07:21:29;2.00;99.90
19292;DHT22;9779;51.756;7.450;2023-11-22T07:23:58;2.00;99.90
19292;DHT22;9779;51.756;7.450;2023-11-22T07:26:27;1.90;99.90
19292;DHT22;9779;51.756;7.450;2023-11-22T07:28:53;1.90;99.90
19292;DHT22;9779;51.756;7.450;2023-11-22T07:31:19;1.90;99.90
19292;DHT22;9779;51.756;7.450;2023-11-22T07:33:45;1.90;99.90
19292;DHT22;9779;51.756;7.450;2023-11-22T07:36:12;1.90;99.90
19292;DHT22;9779;51.756;7.450;2023-11-22T07:38:40;1.90;99.90
19292;DHT22;9779;51.756;7.450;2023-11-22T07:41:06;1.90;99.90
19292;DHT22;9779;51.756;7.450;2023-11-22T07:43:36;1.90;99.90
19292;DHT22;9779;51.756;7.450;2023-11-22T07:46:08;1.90;99.90
19292;DHT22;9779;51.756;7.450;2023-11-22T07:48:38;1.90;99.90
19292;DHT22;9779;51.756;7.450;2023-11-22T07:51:04;2.00;99.90
19292;DHT22;9779;51.756;7.450;2023-11-22T07:53:31;2.00;99.90
19292;DHT22;9779;51.756;7.450;2023-11-22T07:56:02;2.00;99.90
19292;DHT22;9779;51.756;7.450;2023-11-22T07:58:30;2.00;99.90
19292;DHT22;9779;51.756;7.450;2023-11-22T08:00:57;2.00;99.90
19292;DHT22;9779;51.756;7.450;2023-11-22T08:03:23;2.00;99.90
19292;DHT22;9779;51.756;7.450;2023-11-22T08:05:51;2.00;99.90
19292;DHT22;9779;51.756;7.450;2023-11-22T08:08:19;2.00;99.90
19292;DHT22;9779;51.756;7.450;2023-11-22T08:10:46;2.00;99.90
19292;DHT22;9779;51.756;7.450;2023-11-22T08:13:13;2.10;99.90
19292;DHT22;9779;51.756;7.450;2023-11-22T08:15:38;2.10;99.90
19292;DHT22;9779;51.756;7.450;2023-11-22T08:18:04;2.10;99.90
19292;DHT22;9779;51.756;7.450;2023-11-22T08:20:31;2.10;99.90
19292;DHT22;9779;51.756;7.450;2023-11-22T08:22:56;2.20;99.90
19292;DHT22;9779;51.756;7.450;2023-11-22T08:25:22;2.20;99.90
19292;DHT22;9779;51.756;7.450;2023-11-22T08:27:48;2.20;99.90
19292;DHT22;9779;51.756;7.450;2023-11-22T08:30:15;2.20;99.90
19292;DHT22;9779;51.756;7.450;2023-11-22T08:32:47;2.20;99.90
19292;DHT22;9779;51.756;7.450;2023-11-22T08:35:19;2.20;99.90
19292;DHT22;9779;51.756;7.450;2023-11-22T08:37:45;2.30;99.90
19292;DHT22;9779;51.756;7.450;2023-11-22T08:40:13;2.30;99.90
19292;DHT22;9779;51.756;7.450;2023-11-22T08:42:43;2.40;99.90
19292;DHT22;9779;51.756;7.450;2023-11-22T08:45:09;2.40;99.90
19292;DHT22;9779;51.756;7.450;2023-11-22T08:47:37;2.50;99.90
19292;DHT22;9779;51.756;7.450;2023-11-22T08:50:03;2.50;99.90
19292;DHT22;9779;51.756;7.450;2023-11-22T08:52:29;2.50;99.90
19292;DHT22;9779;51.756;7.450;2023-11-22T08:54:56;2.50;99.90
19292;DHT22;9779;51.756;7.450;2023-11-22T08:57:22;2.60;99.90
19292;DHT22;9779;51.756;7.450;2023-11-22T08:59:48;2.60;99.90
19292;DHT22;9779;51.756;7.450;2023-11-22T09:02:14;2.60;99.90
19292;DHT22;9779;51.756;7.450;2023-11-22T09:04:41;2.60;99.90
19292;DHT22;9779;51.756;7.450;2023-11-22T09:07:07;2.70;99.90
19292;DHT22;9779;51.756;7.450;2023-11-22T09:09:35;2.70;99.90
19292;DHT22;9779;51.756;7.450;2023-11-22T09:12:01;2.80;99.90
19292;DHT22;9779;51.756;7.450;2023-11-22T09:14:27;2.80;99.90
19292;DHT22;9779;51.756;7.450;2023-11-22T09:16:53;2.90;99.90
19292;DHT22;9779;51.756;7.450;2023-11-22T09:19:23;2.90;99.90
19292;DHT22;9779;51.756;7.450;2023-11-22T09:21:50;3.00;99.90
19292;DHT22;9779;51.756;7.450;2023-11-22T09:24:16;3.40;99.90
19292;DHT22;9779;51.756;7.450;2023-11-22T09:26:42;3.40;99.90
19292;DHT22;9779;51.756;7.450;2023-11-22T09:29:10;3.40;99.90
19292;DHT22;9779;51.756;7.450;2023-11-22T09:31:40;3.30;99.90
19292;DHT22;9779;51.756;7.450;2023-11-22T09:34:08;3.30;99.90
19292;DHT22;9779;51.756;7.450;2023-11-22T09:36:33;3.30;99.90
19292;DHT22;9779;51.756;7.450;2023-11-22T09:38:59;3.40;99.90
19292;DHT22;9779;51.756;7.450;2023-11-22T09:41:25;3.30;99.90
19292;DHT22;9779;51.756;7.450;2023-11-22T09:43:55;3.40;99.90
19292;DHT22;9779;51.756;7.450;2023-11-22T09:46:24;3.40;99.90
19292;DHT22;9779;51.756;7.450;2023-11-22T09:48:51;3.50;99.90
19292;DHT22;9779;51.756;7.450;2023-11-22T09:51:23;3.50;99.90
19292;DHT22;9779;51.756;7.450;2023-11-22T09:53:56;3.50;99.90
19292;DHT22;9779;51.756;7.450;2023-11-22T09:56:23;3.60;99.90
19292;DHT22;9779;51.756;7.450;2023-11-22T09:58:53;3.60;99.90
19292;DHT22;9779;51.756;7.450;2023-11-22T10:01:22;3.60;99.90
19292;DHT22;9779;51.756;7.450;2023-11-22T10:03:49;3.70;99.90
19292;DHT22;9779;51.756;7.450;2023-11-22T10:06:15;3.70;99.90
19292;DHT22;9779;51.756;7.450;2023-11-22T10:08:41;3.80;99.90
19292;DHT22;9779;51.756;7.450;2023-11-22T10:11:07;3.80;99.90
19292;DHT22;9779;51.756;7.450;2023-11-22T10:13:33;3.80;99.90
19292;DHT22;9779;51.756;7.450;2023-11-22T10:16:13;3.80;99.90
19292;DHT22;9779;51.756;7.450;2023-11-22T10:18:44;3.80;99.90
19292;DHT22;9779;51.756;7.450;2023-11-22T10:21:26;3.90;99.90
19292;DHT22;9779;51.756;7.450;2023-11-22T10:24:02;3.90;99.90
19292;DHT22;9779;51.756;7.450;2023-11-22T10:26:28;4.00;99.90
19292;DHT22;9779;51.756;7.450;2023-11-22T10:28:55;4.00;99.90
19292;DHT22;9779;51.756;7.450;2023-11-22T10:31:22;4.10;99.90
19292;DHT22;9779;51.756;7.450;2023-11-22T10:33:49;4.10;99.90
19292;DHT22;9779;51.756;7.450;2023-11-22T10:36:15;4.10;99.90
19292;DHT22;9779;51.756;7.450;2023-11-22T10:38:48;4.20;99.90
19292;DHT22;9779;51.756;7.450;2023-11-22T10:41:14;4.30;99.90
19292;DHT22;9779;51.756;7.450;2023-11-22T10:43:40;4.30;99.90
19292;DHT22;9779;51.756;7.450;2023-11-22T10:46:08;4.40;99.90
19292;DHT22;9779;51.756;7.450;2023-11-22T10:48:36;4.40;99.90
19292;DHT22;9779;51.756;7.450;2023-11-22T10:51:03;4.40;99.90
19292;DHT22;9779;51.756;7.450;2023-11-22T10:53:34;4.40;99.90
19292;DHT22;9779;51.756;7.450;2023-11-22T10:56:05;4.40;99.90
19292;DHT22;9779;51.756;7.450;2023-11-22T10:58:51;4.50;99.90
19292;DHT22;9779;51.756;7.450;2023-11-22T11:01:18;4.40;99.90
19292;DHT22;9779;51.756;7.450;2023-11-22T11:04:03;4.50;99.90
19292;DHT22;9779;51.756;7.450;2023-11-22T11:06:36;4.60;99.90
19292;DHT22;9779;51.756;7.450;2023-11-22T11:09:03;4.60;99.90
19292;DHT22;9779;51.756;7.450;2023-11-22T11:11:32;4.70;99.90
19292;DHT22;9779;51.756;7.450;2023-11-22T11:13:58;4.70;99.90
19292;DHT22;9779;51.756;7.450;2023-11-22T11:16:25;4.70;93.20
19292;DHT22;9779;51.756;7.450;2023-11-22T11:18:52;4.70;1.00
19292;DHT22;9779;51.756;7.450;2023-11-22T11:21:19;4.80;1.00
19292;DHT22;9779;51.756;7.450;2023-11-22T11:23:45;4.80;1.00
19292;DHT22;9779;51.756;7.450;2023-11-22T11:26:18;4.80;1.00
19292;DHT22;9779;51.756;7.450;2023-11-22T11:28:48;4.90;1.00
19292;DHT22;9779;51.756;7.450;2023-11-22T11:31:20;4.90;99.90
19292;DHT22;9779;51.756;7.450;2023-11-22T11:38:50;5.00;1.00
19292;DHT22;9779;51.756;7.450;2023-11-22T11:41:16;5.10;99.90
19292;DHT22;9779;51.756;7.450;2023-11-22T11:43:47;5.10;1.00
19292;DHT22;9779;51.756;7.450;2023-11-22T11:46:14;5.10;1.00
19292;DHT22;9779;51.756;7.450;2023-11-22T11:48:51;5.00;14.30
19292;DHT22;9779;51.756;7.450;2023-11-22T11:51:24;5.10;1.00
19292;DHT22;9779;51.756;7.450;2023-11-22T11:53:51;5.10;99.90
19292;DHT22;9779;51.756;7.450;2023-11-22T11:56:17;5.20;1.00
19292;DHT22;9779;51.756;7.450;2023-11-22T11:58:45;5.10;1.00
19292;DHT22;9779;51.756;7.450;2023-11-22T12:01:13;5.00;1.00
19292;DHT22;9779;51.756;7.450;2023-11-22T12:03:39;5.00;1.00
19292;DHT22;9779;51.756;7.450;2023-11-22T12:06:06;5.00;99.90
19292;DHT22;9779;51.756;7.450;2023-11-22T12:08:32;5.40;99.90
19292;DHT22;9779;51.756;7.450;2023-11-22T12:11:04;6.30;99.90
19292;DHT22;9779;51.756;7.450;2023-11-22T12:13:34;6.60;99.90
19292;DHT22;9779;51.756;7.450;2023-11-22T12:16:01;6.70;99.90
19292;DHT22;9779;51.756;7.450;2023-11-22T12:18:45;6.80;99.90
19292;DHT22;9779;51.756;7.450;2023-11-22T12:21:13;6.90;99.90
19292;DHT22;9779;51.756;7.450;2023-11-22T12:23:39;7.00;99.90
19292;DHT22;9779;51.756;7.450;2023-11-22T12:26:13;6.80;1.00
19292;DHT22;9779;51.756;7.450;2023-11-22T12:28:45;6.70;1.00
19292;DHT22;9779;51.756;7.450;2023-11-22T12:31:13;6.50;1.00
19292;DHT22;9779;51.756;7.450;2023-11-22T12:33:40;6.50;1.00
19292;DHT22;9779;51.756;7.450;2023-11-22T12:36:07;6.50;99.90
19292;DHT22;9779;51.756;7.450;2023-11-22T12:38:37;6.50;1.00
19292;DHT22;9779;51.756;7.450;2023-11-22T12:41:05;6.60;1.00
19292;DHT22;9779;51.756;7.450;2023-11-22T12:43:34;6.70;99.90
19292;DHT22;9779;51.756;7.450;2023-11-22T12:46:01;6.90;99.90
19292;DHT22;9779;51.756;7.450;2023-11-22T12:48:26;6.90;17.20
19292;DHT22;9779;51.756;7.450;2023-11-22T12:50:55;7.00;99.90
19292;DHT22;9779;51.756;7.450;2023-11-22T12:53:22;6.80;1.00
19292;DHT22;9779;51.756;7.450;2023-11-22T12:55:52;6.80;1.00
19292;DHT22;9779;51.756;7.450;2023-11-22T12:58:19;6.70;1.00
19292;DHT22;9779;51.756;7.450;2023-11-22T13:00:46;6.70;99.90
19292;DHT22;9779;51.756;7.450;2023-11-22T13:03:12;6.80;99.90
19292;DHT22;9779;51.756;7.450;2023-11-22T13:05:39;6.80;99.90
19292;DHT22;9779;51.756;7.450;2023-11-22T13:08:05;6.90;1.00
19292;DHT22;9779;51.756;7.450;2023-11-22T13:10:31;7.00;1.00
19292;DHT22;9779;51.756;7.450;2023-11-22T13:12:57;7.00;1.00
19292;DHT22;9779;51.756;7.450;2023-11-22T13:15:23;7.00;1.00
19292;DHT22;9779;51.756;7.450;2023-11-22T13:17:54;7.10;99.90
19292;DHT22;9779;51.756;7.450;2023-11-22T13:20:24;7.20;99.90
19292;DHT22;9779;51.756;7.450;2023-11-22T13:22:54;7.10;99.90
19292;DHT22;9779;51.756;7.450;2023-11-22T13:25:20;7.00;99.90
19292;DHT22;9779;51.756;7.450;2023-11-22T13:27:47;7.20;1.00
19292;DHT22;9779;51.756;7.450;2023-11-22T13:30:17;7.00;99.90
19292;DHT22;9779;51.756;7.450;2023-11-22T13:32:49;6.90;99.90
19292;DHT22;9779;51.756;7.450;2023-11-22T13:35:14;6.80;99.90
19292;DHT22;9779;51.756;7.450;2023-11-22T13:37:45;6.70;99.90
19292;DHT22;9779;51.756;7.450;2023-11-22T13:40:13;6.70;1.00
19292;DHT22;9779;51.756;7.450;2023-11-22T13:42:43;6.70;1.00
19292;DHT22;9779;51.756;7.450;2023-11-22T13:45:13;6.70;10.40
19292;DHT22;9779;51.756;7.450;2023-11-22T13:47:44;6.70;99.90
19292;DHT22;9779;51.756;7.450;2023-11-22T13:50:11;6.60;1.00
19292;DHT22;9779;51.756;7.450;2023-11-22T13:52:39;6.60;1.00
19292;DHT22;9779;51.756;7.450;2023-11-22T13:55:05;6.60;1.00
19292;DHT22;9779;51.756;7.450;2023-11-22T13:57:36;6.60;1.00
19292;DHT22;9779;51.756;7.450;2023-11-22T14:00:03;6.50;1.00
19292;DHT22;9779;51.756;7.450;2023-11-22T14:02:34;6.50;1.00
19292;DHT22;9779;51.756;7.450;2023-11-22T14:05:00;6.50;99.90
19292;DHT22;9779;51.756;7.450;2023-11-22T14:07:27;6.50;1.00
19292;DHT22;9779;51.756;7.450;2023-11-22T14:09:52;6.40;1.00
19292;DHT22;9779;51.756;7.450;2023-11-22T14:12:19;6.50;1.00
19292;DHT22;9779;51.756;7.450;2023-11-22T14:14:45;6.40;1.00
19292;DHT22;9779;51.756;7.450;2023-11-22T14:17:10;6.40;1.00
19292;DHT22;9779;51.756;7.450;2023-11-22T14:19:36;6.40;1.00
19292;DHT22;9779;51.756;7.450;2023-11-22T14:22:02;6.30;1.00
19292;DHT22;9779;51.756;7.450;2023-11-22T14:24:28;6.30;1.00
19292;DHT22;9779;51.756;7.450;2023-11-22T14:26:55;6.30;1.00
19292;DHT22;9779;51.756;7.450;2023-11-22T14:29:23;6.30;1.00
19292;DHT22;9779;51.756;7.450;2023-11-22T14:31:48;6.30;99.90
19292;DHT22;9779;51.756;7.450;2023-11-22T14:34:14;6.20;1.00
19292;DHT22;9779;51.756;7.450;2023-11-22T14:36:40;6.20;1.00
19292;DHT22;9779;51.756;7.450;2023-11-22T14:39:06;6.20;99.90
19292;DHT22;9779;51.756;7.450;2023-11-22T14:41:32;6.20;1.00
19292;DHT22;9779;51.756;7.450;2023-11-22T14:43:58;6.10;1.00
19292;DHT22;9779;51.756;7.450;2023-11-22T14:46:24;6.10;1.00
19292;DHT22;9779;51.756;7.450;2023-11-22T14:48:50;6.10;99.90
19292;DHT22;9779;51.756;7.450;2023-11-22T14:51:15;6.10;1.00
19292;DHT22;9779;51.756;7.450;2023-11-22T14:53:41;6.00;1.00
19292;DHT22;9779;51.756;7.450;2023-11-22T14:56:10;6.00;99.90
19292;DHT22;9779;51.756;7.450;2023-11-22T14:58:35;6.00;1.00
19292;DHT22;9779;51.756;7.450;2023-11-22T15:01:01;5.90;99.90
19292;DHT22;9779;51.756;7.450;2023-11-22T15:03:27;5.90;1.00
19292;DHT22;9779;51.756;7.450;2023-11-22T15:05:54;5.90;99.90
19292;DHT22;9779;51.756;7.450;2023-11-22T15:08:19;5.90;1.00
19292;DHT22;9779;51.756;7.450;2023-11-22T15:10:45;6.00;99.90
19292;DHT22;9779;51.756;7.450;2023-11-22T15:13:10;5.90;1.00
19292;DHT22;9779;51.756;7.450;2023-11-22T15:15:36;5.90;1.00
19292;DHT22;9779;51.756;7.450;2023-11-22T15:18:02;5.80;1.00
19292;DHT22;9779;51.756;7.450;2023-11-22T15:20:27;6.80;99.90
19292;DHT22;9779;51.756;7.450;2023-11-22T15:22:53;7.10;99.90
19292;DHT22;9779;51.756;7.450;2023-11-22T15:25:18;6.70;99.90
19292;DHT22;9779;51.756;7.450;2023-11-22T15:27:44;6.40;99.90
19292;DHT22;9779;51.756;7.450;2023-11-22T15:30:10;6.20;1.00
19292;DHT22;9779;51.756;7.450;2023-11-22T15:32:37;6.10;1.00
19292;DHT22;9779;51.756;7.450;2023-11-22T15:35:03;6.00;1.00
19292;DHT22;9779;51.756;7.450;2023-11-22T15:37:30;5.90;99.90
19292;DHT22;9779;51.756;7.450;2023-11-22T15:39:56;6.00;1.00
19292;DHT22;9779;51.756;7.450;2023-11-22T15:42:22;6.00;1.00
19292;DHT22;9779;51.756;7.450;2023-11-22T15:44:47;6.00;1.00
19292;DHT22;9779;51.756;7.450;2023-11-22T15:47:13;5.90;1.00
19292;DHT22;9779;51.756;7.450;2023-11-22T15:49:39;5.80;99.90
19292;DHT22;9779;51.756;7.450;2023-11-22T15:52:04;5.70;99.90
19292;DHT22;9779;51.756;7.450;2023-11-22T15:54:31;5.70;1.00
19292;DHT22;9779;51.756;7.450;2023-11-22T15:56:57;5.70;99.90
19292;DHT22;9779;51.756;7.450;2023-11-22T15:59:23;5.70;99.90
19292;DHT22;9779;51.756;7.450;2023-11-22T16:01:48;5.70;1.00
19292;DHT22;9779;51.756;7.450;2023-11-22T16:04:14;5.70;1.00
19292;DHT22;9779;51.756;7.450;2023-11-22T16:06:40;5.70;99.90